createdAt,value
2022-12-11T00:02:18.595Z,21.20
2022-12-11T00:08:20.575Z,21.42
2022-12-11T00:14:22.596Z,19.55
2022-12-11T00:20:24.880Z,21.92
2022-12-11T00:26:27.215Z,19.58
2022-12-11T00:32:33.690Z,19.60
2022-12-11T00:38:38.564Z,18.60
2022-12-11T00:44:40.467Z,18.27
2022-12-11T00:50:42.394Z,18.90
2022-12-11T00:56:44.301Z,17.17
2022-12-11T01:02:46.597Z,16.67
2022-12-11T01:09:09.111Z,18.02
2022-12-11T01:15:12.268Z,17.23
2022-12-11T01:21:14.449Z,16.35
2022-12-11T01:27:16.336Z,17.88
2022-12-11T01:33:18.198Z,17.50
2022-12-11T01:39:20.064Z,16.88
2022-12-11T01:45:22.550Z,18.23
2022-12-11T01:51:28.360Z,16.63
2022-12-11T01:57:30.320Z,15.90
2022-12-11T02:03:32.510Z,15.23
2022-12-11T02:09:37.920Z,14.27
2022-12-11T02:16:13.435Z,13.75
2022-12-11T02:22:39.528Z,14.85
2022-12-11T02:28:45.652Z,13.80
2022-12-11T02:34:52.642Z,13.20
2022-12-11T02:40:56.653Z,13.63
2022-12-11T02:46:59.583Z,13.68
2022-12-11T02:53:02.683Z,14.15
2022-12-11T02:59:14.121Z,13.70
2022-12-11T03:05:16.143Z,12.85
2022-12-11T03:11:18.287Z,14.50
2022-12-11T03:17:46.465Z,13.13
2022-12-11T03:24:09.171Z,13.70
2022-12-11T03:30:15.308Z,12.35
2022-12-11T03:36:23.913Z,11.75
2022-12-11T03:42:27.581Z,12.60
2022-12-11T03:48:35.383Z,13.95
2022-12-11T03:54:39.316Z,12.73
2022-12-11T04:00:41.319Z,13.02
2022-12-11T04:06:43.250Z,14.60
2022-12-11T04:12:45.120Z,14.60
2022-12-11T04:19:05.398Z,14.50
2022-12-11T04:25:08.414Z,14.25
2022-12-11T04:31:19.683Z,12.57
2022-12-11T04:37:21.661Z,11.85
2022-12-11T04:43:23.513Z,11.90
2022-12-11T04:49:25.414Z,12.32
2022-12-11T04:55:27.338Z,11.95
2022-12-11T05:01:29.249Z,12.63
2022-12-11T05:07:35.850Z,11.88
2022-12-11T05:13:41.520Z,11.55
2022-12-11T05:19:43.386Z,10.95
2022-12-11T05:25:55.220Z,12.75
2022-12-11T05:31:57.058Z,12.07
2022-12-11T05:38:00.204Z,28.48
2022-12-11T05:44:02.066Z,17.67
2022-12-11T05:50:04.142Z,15.23
2022-12-11T05:56:08.624Z,13.63
2022-12-11T06:02:10.556Z,15.45
2022-12-11T06:08:13.012Z,15.55
2022-12-11T06:14:14.959Z,14.15
2022-12-11T06:20:17.006Z,13.48
2022-12-11T06:26:20.106Z,14.70
2022-12-11T06:32:22.024Z,13.95
2022-12-11T06:38:24.703Z,13.02
2022-12-11T06:44:29.182Z,13.48
2022-12-11T06:50:31.036Z,12.85
2022-12-11T06:56:35.335Z,13.80
2022-12-11T07:02:37.175Z,12.70
2022-12-11T07:08:39.140Z,12.25
2022-12-11T07:14:41.089Z,11.70
2022-12-11T07:20:42.973Z,11.95
2022-12-11T07:26:44.962Z,11.85
2022-12-11T07:32:46.978Z,12.35
2022-12-11T07:38:48.903Z,13.40
2022-12-11T07:44:50.756Z,13.30
2022-12-11T07:50:52.619Z,13.75
2022-12-11T07:56:54.481Z,15.25
2022-12-11T08:02:56.365Z,14.35
2022-12-11T08:09:00.464Z,14.40
2022-12-11T08:15:02.366Z,14.93
2022-12-11T08:21:08.587Z,14.57
2022-12-11T08:27:10.507Z,14.98
2022-12-11T08:33:12.354Z,14.60
2022-12-11T08:39:14.476Z,14.40
2022-12-11T08:45:16.565Z,15.18
2022-12-11T08:51:21.232Z,17.15
2022-12-11T08:57:23.073Z,19.20
2022-12-11T09:03:25.426Z,17.30
2022-12-11T09:09:27.274Z,15.43
2022-12-11T09:15:29.201Z,16.48
2022-12-11T09:21:31.050Z,16.85
2022-12-11T09:27:34.189Z,17.73
2022-12-11T09:33:36.046Z,17.20
2022-12-11T09:39:37.970Z,19.58
2022-12-11T09:45:39.899Z,17.83
2022-12-11T09:52:05.418Z,17.65
2022-12-11T09:58:16.323Z,21.48
2022-12-11T10:04:29.985Z,18.58
2022-12-11T10:10:43.654Z,19.20
2022-12-11T10:16:50.482Z,18.77
2022-12-11T10:22:53.537Z,19.42
2022-12-11T10:29:00.773Z,20.13
2022-12-11T10:35:06.901Z,19.15
2022-12-11T10:41:15.038Z,18.42
2022-12-11T10:47:19.948Z,19.92
2022-12-11T10:53:22.299Z,20.60
2022-12-11T10:59:49.976Z,14.80
2022-12-11T11:06:22.554Z,15.40
2022-12-11T11:12:28.237Z,16.55
2022-12-11T11:18:30.902Z,16.00
2022-12-11T11:24:40.664Z,15.57
2022-12-11T11:30:42.918Z,14.43
2022-12-11T11:36:56.875Z,14.52
2022-12-11T11:43:22.676Z,13.43
2022-12-11T11:49:49.199Z,13.40
2022-12-11T11:56:21.540Z,13.43
2022-12-11T12:02:23.444Z,12.32
2022-12-11T12:08:47.126Z,13.88
2022-12-11T12:15:26.759Z,15.07
2022-12-11T12:21:36.485Z,13.90
2022-12-11T12:27:53.927Z,13.77
2022-12-11T12:34:08.866Z,12.55
2022-12-11T12:40:16.701Z,17.25
2022-12-11T12:46:42.160Z,13.82
2022-12-11T12:52:44.836Z,12.02
2022-12-11T12:58:46.903Z,14.70
2022-12-11T13:04:58.672Z,14.57
2022-12-11T13:11:04.979Z,13.25
2022-12-11T13:17:36.177Z,13.15
2022-12-11T13:23:40.325Z,10.75
2022-12-11T13:29:42.706Z,12.55
2022-12-11T13:35:44.910Z,13.02
2022-12-11T13:41:51.639Z,14.88
2022-12-11T13:47:55.895Z,15.27
2022-12-11T13:54:19.061Z,14.13
2022-12-11T14:00:24.688Z,14.77
2022-12-11T14:06:28.109Z,12.88
2022-12-11T14:12:36.451Z,16.83
2022-12-11T14:18:38.687Z,28.77
2022-12-11T14:24:52.962Z,14.15
2022-12-11T14:30:59.135Z,11.73
2022-12-11T14:37:05.188Z,13.55
2022-12-11T14:43:30.416Z,14.07
2022-12-11T14:49:46.507Z,21.45
2022-12-11T14:55:50.408Z,13.60
2022-12-11T15:02:19.218Z,13.13
2022-12-11T15:08:30.387Z,13.73
2022-12-11T15:14:33.577Z,14.05
2022-12-11T15:20:35.698Z,13.60
2022-12-11T15:26:45.095Z,13.73
2022-12-11T15:32:46.918Z,15.13
2022-12-11T15:38:48.787Z,15.00
2022-12-11T15:44:50.966Z,13.23
2022-12-11T15:50:52.958Z,14.02
2022-12-11T15:56:55.064Z,16.08
2022-12-11T16:02:57.904Z,15.45
2022-12-11T16:08:59.913Z,15.15
2022-12-11T16:15:01.937Z,17.25
2022-12-11T16:21:07.051Z,15.38
2022-12-11T16:27:12.153Z,14.93
2022-12-11T16:33:14.095Z,13.25
2022-12-11T16:39:15.954Z,12.90
2022-12-11T16:45:20.562Z,15.82
2022-12-11T16:51:23.814Z,10.75
2022-12-11T16:57:29.697Z,10.73
2022-12-11T17:09:35.253Z,9.68
2022-12-11T17:15:46.556Z,10.18
2022-12-11T17:21:51.723Z,12.38
2022-12-11T17:27:56.491Z,13.98
2022-12-11T17:34:00.744Z,11.30
2022-12-11T17:40:09.262Z,10.35
2022-12-11T17:46:12.579Z,11.30
2022-12-11T17:52:14.442Z,14.45
2022-12-11T17:58:19.567Z,16.48
2022-12-11T18:04:21.408Z,13.55
2022-12-11T18:10:23.302Z,11.70
2022-12-11T18:16:31.460Z,11.50
2022-12-11T18:22:33.478Z,11.85
2022-12-11T18:28:35.585Z,11.90
2022-12-11T18:34:37.425Z,12.10
2022-12-11T18:40:39.401Z,13.07
2022-12-11T18:46:41.340Z,12.55
2022-12-11T18:52:43.256Z,13.52
2022-12-11T18:58:46.694Z,12.52
2022-12-11T19:04:48.646Z,12.52
2022-12-11T19:10:50.585Z,12.38
2022-12-11T19:16:52.449Z,12.45
2022-12-11T19:22:54.357Z,17.48
2022-12-11T19:29:00.029Z,18.90
2022-12-11T19:35:01.909Z,13.43
2022-12-11T19:41:20.372Z,12.75
2022-12-11T19:47:22.285Z,15.77
2022-12-11T19:53:24.175Z,16.10
2022-12-11T19:59:26.078Z,16.20
2022-12-11T20:05:27.877Z,16.58
2022-12-11T20:11:31.934Z,19.35
2022-12-11T20:17:33.888Z,16.33
2022-12-11T20:23:36.659Z,15.40
2022-12-11T20:29:38.952Z,15.85
2022-12-11T20:35:41.016Z,18.15
2022-12-11T20:41:43.019Z,17.90
2022-12-11T20:47:44.857Z,16.52
2022-12-11T20:53:47.136Z,15.45
2022-12-11T20:59:49.568Z,14.38
2022-12-11T21:05:51.402Z,16.02
2022-12-11T21:11:56.447Z,14.48
2022-12-11T21:17:58.284Z,15.38
2022-12-11T21:24:00.261Z,14.40
2022-12-11T21:30:02.307Z,18.45
2022-12-11T21:36:06.088Z,15.40
2022-12-11T21:42:07.993Z,15.82
2022-12-11T21:48:09.858Z,15.32
2022-12-11T21:54:14.397Z,16.55
2022-12-11T22:00:16.732Z,13.57
2022-12-11T22:06:19.444Z,14.68
2022-12-11T22:12:26.365Z,14.65
2022-12-11T22:18:28.460Z,14.85
2022-12-11T22:24:30.285Z,18.85
2022-12-11T22:30:32.352Z,19.48
2022-12-11T22:36:34.207Z,19.60
2022-12-11T22:42:36.028Z,18.55
2022-12-11T22:48:37.896Z,16.77
2022-12-11T22:54:41.469Z,16.45
2022-12-11T23:00:43.329Z,15.75
2022-12-11T23:06:48.842Z,14.18
2022-12-11T23:12:50.950Z,13.60
2022-12-11T23:18:54.127Z,13.75
2022-12-11T23:24:56.051Z,13.60
2022-12-11T23:30:59.610Z,12.70
2022-12-11T23:37:02.008Z,13.35
2022-12-11T23:43:03.880Z,13.27
2022-12-11T23:49:05.825Z,12.93
2022-12-11T23:55:08.595Z,12.43
